Time;durP1;ratioP1;P1;durP2;ratioP2;P2;SDS_P1;SDS_P2;PMS_P1;PMS_P2;Temp;Humidity;BMP_temperature;BMP_pressure;BME280_temperature;BME280_humidity;BME280_pressure;Samples;Min_cycle;Max_cycle;Signal;HPM_P1;HPM_P2
2021/11/23 00:00:58;;;;;;;3.00;2.80;;;7.10;43.90;;;;;;10424589;28;20607;-74
2021/11/23 00:06:03;;;;;;;3.37;3.07;;;7.10;44.00;;;;;;10423432;28;20225;-74
2021/11/23 00:11:06;;;;;;;3.50;3.20;;;7.10;44.00;;;;;;10415047;28;20236;-75
2021/11/23 00:16:10;;;;;;;3.83;2.87;;;7.00;43.90;;;;;;10422201;28;20241;-75
2021/11/23 00:21:16;;;;;;;3.83;3.03;;;7.00;43.70;;;;;;10426783;28;20770;-75
2021/11/23 00:26:19;;;;;;;3.17;2.97;;;6.90;43.40;;;;;;10425282;28;20225;-76
2021/11/23 00:31:23;;;;;;;6.10;3.10;;;6.90;43.70;;;;;;10423372;28;20230;-76
2021/11/23 00:36:28;;;;;;;3.90;2.47;;;6.90;43.70;;;;;;10415353;28;20240;-76
2021/11/23 00:41:34;;;;;;;3.37;3.07;;;6.80;43.50;;;;;;10423509;28;20232;-76
2021/11/23 00:46:37;;;;;;;2.97;2.77;;;6.70;43.50;;;;;;10426615;28;20226;-76
2021/11/23 00:51:43;;;;;;;2.70;2.50;;;6.70;43.70;;;;;;10428610;28;20224;-76
2021/11/23 00:56:47;;;;;;;2.50;2.30;;;6.70;43.70;;;;;;10421555;28;20748;-76
2021/11/23 01:01:50;;;;;;;2.87;2.67;;;6.60;43.80;;;;;;10418861;28;20253;-76
2021/11/23 01:06:55;;;;;;;2.77;2.57;;;6.60;43.80;;;;;;10424258;28;20238;-75
2021/11/23 01:11:59;;;;;;;3.00;2.70;;;6.60;43.60;;;;;;10424276;28;20305;-76
2021/11/23 01:17:02;;;;;;;2.67;2.47;;;6.60;43.70;;;;;;10425175;28;20220;-74
2021/11/23 01:22:07;;;;;;;3.73;2.80;;;6.50;43.60;;;;;;10421633;28;20229;-75
2021/11/23 01:27:11;;;;;;;3.27;2.97;;;6.50;43.40;;;;;;10427140;28;20776;-76
2021/11/23 01:32:15;;;;;;;2.70;2.50;;;6.40;43.50;;;;;;10419994;28;20341;-76
2021/11/23 01:37:20;;;;;;;3.17;2.87;;;6.40;43.30;;;;;;10421058;28;20244;-76
2021/11/23 01:42:27;;;;;;;3.20;2.90;;;6.30;43.20;;;;;;10422973;28;20403;-77
2021/11/23 01:47:31;;;;;;;2.60;2.40;;;6.20;42.90;;;;;;10418435;28;20275;-77
2021/11/23 01:52:37;;;;;;;2.70;2.50;;;6.10;43.10;;;;;;10416520;28;20228;-72
2021/11/23 01:57:41;;;;;;;2.87;2.67;;;6.00;43.30;;;;;;10418695;28;20232;-72
2021/11/23 02:02:45;;;;;;;3.10;2.90;;;6.00;43.50;;;;;;10422087;28;20773;-72
2021/11/23 02:07:53;;;;;;;2.60;2.40;;;5.80;43.40;;;;;;10412946;28;20801;-72
2021/11/23 02:12:57;;;;;;;2.70;2.50;;;5.90;43.50;;;;;;10420621;28;20236;-72
2021/11/23 02:18:12;;;;;;;3.30;2.33;;;5.90;43.50;;;;;;10420216;28;20530;-72
2021/11/23 02:23:17;;;;;;;2.93;2.73;;;5.90;43.50;;;;;;10414523;28;20233;-72
2021/11/23 02:28:21;;;;;;;2.90;2.70;;;5.90;43.50;;;;;;10413105;28;20256;-72
2021/11/23 02:33:28;;;;;;;2.17;2.03;;;5.80;43.40;;;;;;10417548;28;20709;-72
2021/11/23 02:38:34;;;;;;;3.37;2.83;;;5.80;43.30;;;;;;10416035;28;20230;-72
2021/11/23 02:43:38;;;;;;;2.57;2.37;;;5.70;43.20;;;;;;10420787;28;20260;-71
2021/11/23 02:48:43;;;;;;;3.23;2.50;;;5.70;43.30;;;;;;10419293;28;20242;-72
2021/11/23 02:53:49;;;;;;;2.27;2.17;;;5.70;43.30;;;;;;10426500;28;20283;-72
2021/11/23 02:58:53;;;;;;;2.77;2.57;;;5.70;43.30;;;;;;10429937;28;20252;-72
2021/11/23 03:03:57;;;;;;;3.40;2.90;;;5.70;43.30;;;;;;10428443;28;20292;-72
2021/11/23 03:09:02;;;;;;;2.40;2.30;;;5.70;43.40;;;;;;10424017;28;20697;-72
2021/11/23 03:14:06;;;;;;;2.87;2.60;;;5.70;43.30;;;;;;10423784;28;20236;-72
2021/11/23 03:19:10;;;;;;;3.00;2.43;;;5.60;43.20;;;;;;10427965;28;20661;-71
2021/11/23 03:24:15;;;;;;;2.20;2.00;;;5.60;43.30;;;;;;10430730;28;20347;-71
2021/11/23 03:29:19;;;;;;;2.53;2.33;;;5.60;43.00;;;;;;10421481;28;20241;-71
2021/11/23 03:34:23;;;;;;;2.97;2.73;;;5.50;43.10;;;;;;10425590;28;20243;-71
2021/11/23 03:39:28;;;;;;;2.73;2.53;;;5.50;43.80;;;;;;10422093;28;20237;-72
2021/11/23 03:44:31;;;;;;;2.63;2.53;;;5.50;43.10;;;;;;10415948;28;20233;-72
2021/11/23 03:49:35;;;;;;;2.00;1.90;;;5.50;43.30;;;;;;10425340;28;20252;-72
2021/11/23 03:54:40;;;;;;;2.80;2.60;;;5.50;43.10;;;;;;10427734;28;20264;-72
2021/11/23 03:59:47;;;;;;;2.70;2.50;;;5.40;43.10;;;;;;10418573;28;20248;-72
2021/11/23 04:04:50;;;;;;;2.23;2.10;;;5.40;43.10;;;;;;10421677;28;20241;-72
2021/11/23 04:09:56;;;;;;;2.07;1.90;;;5.30;43.00;;;;;;10426435;28;20245;-72
2021/11/23 04:15:03;;;;;;;2.70;2.50;;;5.30;43.00;;;;;;10419717;28;20236;-74
2021/11/23 04:20:07;;;;;;;2.40;2.20;;;5.30;43.00;;;;;;10425393;28;20235;-72
2021/11/23 04:25:14;;;;;;;1.70;1.60;;;5.30;43.00;;;;;;10417329;28;20645;-72
2021/11/23 04:30:17;;;;;;;2.80;2.60;;;5.20;42.80;;;;;;10417023;28;20233;-72
2021/11/23 04:35:21;;;;;;;2.03;1.93;;;5.20;42.90;;;;;;10421548;28;20768;-72
2021/11/23 04:40:26;;;;;;;2.93;2.73;;;5.10;42.80;;;;;;10422253;28;20221;-71
2021/11/23 04:45:29;;;;;;;2.80;2.60;;;5.10;42.80;;;;;;10419266;28;20229;-71
2021/11/23 04:50:33;;;;;;;2.33;2.13;;;5.10;42.90;;;;;;10415482;28;20236;-71
2021/11/23 04:55:39;;;;;;;2.23;2.10;;;5.00;42.80;;;;;;10420818;28;20261;-70
2021/11/23 05:00:42;;;;;;;2.30;2.20;;;5.00;42.70;;;;;;10423254;28;20232;-71
2021/11/23 05:05:45;;;;;;;2.57;2.37;;;5.00;42.70;;;;;;10422686;28;20311;-71
2021/11/23 05:10:53;;;;;;;2.63;2.43;;;5.00;42.70;;;;;;10425327;28;20225;-71
2021/11/23 05:15:57;;;;;;;2.63;2.43;;;4.90;42.60;;;;;;10415236;28;20327;-71
2021/11/23 05:21:00;;;;;;;2.53;2.33;;;4.90;42.70;;;;;;10422662;28;20238;-71
2021/11/23 05:26:05;;;;;;;2.43;2.23;;;4.90;42.70;;;;;;10418100;28;20243;-71
2021/11/23 05:31:08;;;;;;;2.80;2.60;;;4.80;42.60;;;;;;10420371;28;20233;-71
2021/11/23 05:36:12;;;;;;;2.50;2.30;;;4.80;42.60;;;;;;10417889;28;20252;-71
2021/11/23 05:41:16;;;;;;;2.50;2.30;;;4.70;42.50;;;;;;10419153;28;20255;-71
2021/11/23 05:46:20;;;;;;;3.53;3.23;;;4.60;42.40;;;;;;10419068;28;20233;-71
2021/11/23 05:51:23;;;;;;;4.07;3.67;;;4.60;42.70;;;;;;10423862;28;20232;-71
2021/11/23 05:56:28;;;;;;;6.03;4.43;;;4.60;42.80;;;;;;10420166;28;20290;-71
2021/11/23 06:01:31;;;;;;;5.20;4.70;;;4.50;42.70;;;;;;10422505;28;20790;-71
2021/11/23 06:06:35;;;;;;;5.03;4.57;;;4.50;42.70;;;;;;10416527;28;20228;-72
2021/11/23 06:11:39;;;;;;;4.50;4.10;;;4.40;42.60;;;;;;10414911;28;20221;-71
2021/11/23 06:16:45;;;;;;;4.67;4.27;;;4.40;42.40;;;;;;10415388;28;20234;-72
2021/11/23 06:21:48;;;;;;;3.93;3.63;;;4.40;42.50;;;;;;10416890;28;20252;-72
2021/11/23 06:26:53;;;;;;;3.40;3.17;;;4.40;42.50;;;;;;10424829;28;20257;-71
2021/11/23 06:31:58;;;;;;;3.63;3.33;;;4.30;42.20;;;;;;10426133;28;20229;-71
2021/11/23 06:37:01;;;;;;;3.37;3.07;;;4.30;42.40;;;;;;10426619;28;20408;-72
2021/11/23 06:42:06;;;;;;;3.60;3.30;;;4.30;42.40;;;;;;10426684;28;20225;-72
2021/11/23 06:47:10;;;;;;;2.93;2.73;;;4.20;42.20;;;;;;10429514;28;20235;-72
2021/11/23 06:52:13;;;;;;;3.37;3.07;;;4.20;42.60;;;;;;10421995;28;20233;-73
2021/11/23 06:57:17;;;;;;;3.03;2.73;;;4.20;42.50;;;;;;10426966;28;20236;-71
2021/11/23 07:02:21;;;;;;;3.37;3.07;;;4.20;42.40;;;;;;10429636;28;20251;-71
2021/11/23 07:07:24;;;;;;;2.97;2.77;;;4.10;42.40;;;;;;10423883;28;20243;-70
2021/11/23 07:12:29;;;;;;;2.80;2.60;;;4.10;42.60;;;;;;10420016;28;20234;-71
2021/11/23 07:17:32;;;;;;;3.03;2.70;;;4.10;42.50;;;;;;10425793;28;20698;-71
2021/11/23 07:22:35;;;;;;;3.57;2.53;;;4.10;42.60;;;;;;10423774;28;20229;-71
2021/11/23 07:27:42;;;;;;;2.93;2.67;;;4.20;42.80;;;;;;10426970;28;20228;-71
2021/11/23 07:32:45;;;;;;;2.80;2.60;;;4.00;42.80;;;;;;10423397;28;20237;-71
2021/11/23 07:37:49;;;;;;;3.33;3.03;;;4.00;43.00;;;;;;10428527;28;20227;-71
2021/11/23 07:42:53;;;;;;;3.10;2.90;;;4.10;43.30;;;;;;10412947;28;20613;-70
2021/11/23 07:48:13;;;;;;;3.27;3.00;;;4.10;43.50;;;;;;10427665;28;20307;-70
2021/11/23 07:53:16;;;;;;;3.30;3.00;;;4.30;43.70;;;;;;10421917;28;20244;-69
2021/11/23 07:58:21;;;;;;;3.27;3.00;;;4.40;43.90;;;;;;10424765;28;20229;-69
2021/11/23 08:03:25;;;;;;;3.60;3.27;;;4.60;44.00;;;;;;10418059;28;20228;-69
2021/11/23 08:08:29;;;;;;;4.10;3.30;;;4.60;43.90;;;;;;10418323;28;20235;-69
2021/11/23 08:13:34;;;;;;;3.67;3.40;;;4.70;43.80;;;;;;10422548;28;20229;-70
2021/11/23 08:18:37;;;;;;;3.83;3.53;;;4.80;43.60;;;;;;10419747;28;20227;-70
2021/11/23 08:23:40;;;;;;;3.50;3.20;;;4.90;43.80;;;;;;10420257;28;20229;-70
2021/11/23 08:28:46;;;;;;;3.93;3.40;;;5.00;43.80;;;;;;10421513;28;20347;-69
2021/11/23 08:33:49;;;;;;;4.90;3.50;;;5.10;43.60;;;;;;10418957;28;20226;-69
2021/11/23 08:38:52;;;;;;;3.93;3.53;;;5.20;43.80;;;;;;10423396;28;20236;-70
2021/11/23 08:43:56;;;;;;;3.80;3.30;;;5.40;43.80;;;;;;10413401;28;20241;-70
2021/11/23 08:49:01;;;;;;;3.70;3.40;;;5.40;43.80;;;;;;10424800;28;20225;-69
2021/11/23 08:54:06;;;;;;;3.00;2.80;;;5.50;43.80;;;;;;10421054;28;20558;-69
2021/11/23 08:59:13;;;;;;;3.40;3.10;;;5.70;43.80;;;;;;10422431;28;20237;-70
2021/11/23 09:04:17;;;;;;;3.37;3.17;;;5.80;44.00;;;;;;10419887;28;20232;-70
2021/11/23 09:09:24;;;;;;;3.60;3.30;;;6.00;44.00;;;;;;10426898;28;20228;-70
2021/11/23 09:14:29;;;;;;;3.67;3.37;;;6.10;44.00;;;;;;10419688;28;20233;-70
2021/11/23 09:19:33;;;;;;;3.40;3.13;;;6.30;43.90;;;;;;10420935;28;20757;-70
2021/11/23 09:24:37;;;;;;;4.33;3.67;;;6.40;43.90;;;;;;10408051;28;20229;-70
2021/11/23 09:29:41;;;;;;;4.03;3.40;;;6.60;44.00;;;;;;10414680;28;20225;-70
2021/11/23 09:34:44;;;;;;;3.97;3.57;;;6.80;44.10;;;;;;10419269;28;20700;-70
2021/11/23 09:39:47;;;;;;;3.83;3.40;;;6.90;44.20;;;;;;10414595;28;20226;-71
2021/11/23 09:44:52;;;;;;;3.93;3.53;;;7.00;43.90;;;;;;10414513;28;20236;-70
2021/11/23 09:49:57;;;;;;;3.87;3.57;;;7.10;43.60;;;;;;10418873;28;20225;-70
2021/11/23 09:55:01;;;;;;;3.43;3.23;;;7.20;43.80;;;;;;10418740;28;20629;-69
2021/11/23 10:00:27;;;;;;;3.70;3.30;;;7.30;43.80;;;;;;10416377;28;20225;-70
2021/11/23 10:05:33;;;;;;;3.80;3.50;;;7.40;42.70;;;;;;10413832;28;20236;-70
2021/11/23 10:10:48;;;;;;;3.70;3.40;;;7.50;42.90;;;;;;10418671;28;20237;-70
2021/11/23 10:15:53;;;;;;;3.47;3.17;;;7.60;42.30;;;;;;10414655;28;20232;-69
2021/11/23 10:21:17;;;;;;;3.63;3.33;;;7.60;43.10;;;;;;10419543;28;20230;-69
2021/11/23 10:26:26;;;;;;;3.93;3.63;;;7.70;43.30;;;;;;10419639;28;20284;-69
2021/11/23 10:31:33;;;;;;;3.80;3.47;;;7.80;43.00;;;;;;10416345;28;20225;-70
2021/11/23 10:36:39;;;;;;;3.20;3.00;;;7.90;42.50;;;;;;10417404;28;20238;-70
2021/11/23 10:41:44;;;;;;;3.60;3.30;;;8.00;42.90;;;;;;10419837;28;20233;-70
2021/11/23 10:46:53;;;;;;;3.47;3.27;;;8.10;42.70;;;;;;10413223;28;20749;-70
2021/11/23 10:51:58;;;;;;;3.90;3.30;;;8.20;42.20;;;;;;10414616;28;20288;-70
2021/11/23 10:57:04;;;;;;;3.60;3.30;;;8.30;42.80;;;;;;10415734;28;20576;-70
2021/11/23 11:02:09;;;;;;;3.40;3.10;;;8.40;42.60;;;;;;10418715;28;20225;-70
2021/11/23 11:07:18;;;;;;;3.80;3.23;;;8.40;42.50;;;;;;10416920;28;20248;-70
2021/11/23 11:12:21;;;;;;;3.47;3.17;;;8.50;42.50;;;;;;10425408;28;20260;-69
2021/11/23 11:17:27;;;;;;;3.67;3.27;;;8.60;42.70;;;;;;10424777;28;20237;-69
2021/11/23 11:22:30;;;;;;;5.80;3.50;;;8.70;42.30;;;;;;10423610;28;20234;-69
2021/11/23 11:27:39;;;;;;;3.63;3.10;;;8.70;42.40;;;;;;10427394;28;20233;-70
2021/11/23 11:32:46;;;;;;;3.53;3.23;;;8.80;41.90;;;;;;10422720;28;20225;-70
2021/11/23 11:37:50;;;;;;;3.40;3.10;;;8.90;41.90;;;;;;10419561;28;20747;-70
2021/11/23 11:43:00;;;;;;;3.33;3.03;;;8.90;42.20;;;;;;10425169;28;20453;-70
2021/11/23 11:48:27;;;;;;;2.93;2.73;;;9.00;41.60;;;;;;10425224;28;20225;-70
2021/11/23 11:53:32;;;;;;;3.40;3.10;;;9.10;40.50;;;;;;10426272;28;20232;-70
2021/11/23 11:58:55;;;;;;;3.10;2.90;;;9.10;41.30;;;;;;10409864;28;20332;-70
2021/11/23 12:04:11;;;;;;;3.53;3.23;;;9.20;40.20;;;;;;10412838;28;20229;-70
2021/11/23 12:09:28;;;;;;;3.80;3.50;;;9.20;40.20;;;;;;10415217;28;20228;-69
2021/11/23 12:14:37;;;;;;;3.30;3.10;;;9.20;40.20;;;;;;10417462;28;20312;-70
2021/11/23 12:19:52;;;;;;;3.37;3.17;;;9.30;40.30;;;;;;10415233;28;20370;-70
2021/11/23 12:25:04;;;;;;;3.17;2.97;;;9.30;40.30;;;;;;10416216;28;20264;-70
2021/11/23 12:30:08;;;;;;;3.67;3.47;;;9.40;40.40;;;;;;10421212;28;20221;-70
2021/11/23 12:35:15;;;;;;;3.80;3.50;;;9.40;40.70;;;;;;10424624;28;20774;-69
2021/11/23 12:40:21;;;;;;;3.87;3.57;;;9.40;40.40;;;;;;10427152;28;20327;-70
2021/11/23 12:45:39;;;;;;;3.80;3.50;;;9.40;40.40;;;;;;10419853;28;20236;-70
2021/11/23 12:50:44;;;;;;;4.07;3.77;;;9.40;39.20;;;;;;10419707;28;20726;-70
2021/11/23 12:55:51;;;;;;;3.90;3.60;;;9.40;40.40;;;;;;10418609;28;20727;-70
2021/11/23 13:00:55;;;;;;;4.20;3.90;;;9.30;40.20;;;;;;10418672;28;20228;-70
2021/11/23 13:06:11;;;;;;;4.20;3.90;;;9.30;40.50;;;;;;10416508;28;20314;-70
2021/11/23 13:11:15;;;;;;;4.77;3.77;;;9.30;39.60;;;;;;10419706;28;20716;-70
2021/11/23 13:16:19;;;;;;;3.37;3.17;;;9.30;40.30;;;;;;10417217;28;20355;-70
2021/11/23 13:21:25;;;;;;;3.00;2.80;;;9.30;40.30;;;;;;10422207;28;20657;-69
2021/11/23 13:26:28;;;;;;;3.60;3.30;;;9.30;40.30;;;;;;10414167;28;20256;-70
2021/11/23 13:31:34;;;;;;;3.80;3.50;;;9.30;40.30;;;;;;10422169;28;20233;-70
2021/11/23 13:36:41;;;;;;;3.90;3.63;;;9.30;40.30;;;;;;10418843;28;20745;-70
2021/11/23 13:41:48;;;;;;;4.00;3.60;;;9.40;40.30;;;;;;10413572;28;20228;-70
2021/11/23 13:46:54;;;;;;;3.50;3.30;;;9.40;40.00;;;;;;10414727;28;20235;-70
2021/11/23 13:52:08;;;;;;;3.77;3.43;;;9.40;40.30;;;;;;10420727;28;20717;-71
2021/11/23 13:57:16;;;;;;;3.60;3.30;;;9.40;39.00;;;;;;10414843;28;20727;-71
2021/11/23 14:02:19;;;;;;;3.30;3.00;;;9.40;39.30;;;;;;10413758;28;20221;-71
2021/11/23 14:07:24;;;;;;;3.20;2.90;;;9.40;40.40;;;;;;10419285;28;20236;-71
2021/11/23 14:12:31;;;;;;;3.20;2.90;;;9.40;39.70;;;;;;10420493;28;20620;-71
2021/11/23 14:18:08;;;;;;;3.30;2.70;;;9.30;39.50;;;;;;10408366;28;20236;-71
2021/11/23 14:23:15;;;;;;;2.90;2.70;;;9.30;38.40;;;;;;10420370;28;20240;-71
2021/11/23 14:28:18;;;;;;;2.77;2.57;;;9.30;39.40;;;;;;10418689;28;20229;-71
2021/11/23 14:33:24;;;;;;;2.50;2.37;;;9.30;39.80;;;;;;10419356;28;20380;-71
2021/11/23 14:38:28;;;;;;;2.87;2.67;;;9.30;39.80;;;;;;10416883;28;20236;-71
2021/11/23 14:43:32;;;;;;;3.17;2.87;;;9.20;39.20;;;;;;10414576;28;20255;-71
2021/11/23 14:48:35;;;;;;;4.10;2.83;;;9.20;40.10;;;;;;10419599;28;20225;-71
2021/11/23 14:53:58;;;;;;;3.50;3.17;;;9.00;39.80;;;;;;10425111;28;20229;-71
2021/11/23 14:59:02;;;;;;;3.03;2.83;;;9.10;39.10;;;;;;10420493;28;20313;-71
2021/11/23 15:04:05;;;;;;;5.37;4.80;;;9.10;40.10;;;;;;10426956;28;20233;-71
2021/11/23 15:09:10;;;;;;;4.70;4.40;;;9.10;40.10;;;;;;10425095;28;21822;-71
2021/11/23 15:14:13;;;;;;;7.57;6.90;;;9.00;39.50;;;;;;10427038;28;20246;-71
2021/11/23 15:19:16;;;;;;;4.20;3.80;;;9.00;40.00;;;;;;10423164;28;20232;-71
2021/11/23 15:24:21;;;;;;;3.20;3.00;;;8.90;40.00;;;;;;10423982;28;20244;-71
2021/11/23 15:29:27;;;;;;;2.90;2.70;;;8.90;40.00;;;;;;10423244;28;20698;-71
2021/11/23 15:34:31;;;;;;;2.40;2.30;;;8.90;40.00;;;;;;10420050;28;20241;-72
2021/11/23 15:39:35;;;;;;;5.80;3.10;;;8.80;39.90;;;;;;10422237;28;20227;-71
2021/11/23 15:44:39;;;;;;;4.70;2.90;;;8.70;39.80;;;;;;10423819;28;20234;-72
2021/11/23 15:49:47;;;;;;;3.27;2.67;;;8.70;39.80;;;;;;10427030;28;20228;-73
2021/11/23 15:54:52;;;;;;;2.03;1.90;;;8.60;39.70;;;;;;10425978;28;20229;-73
2021/11/23 15:59:57;;;;;;;3.43;2.10;;;8.50;39.70;;;;;;10419854;28;20732;-73
2021/11/23 16:05:00;;;;;;;3.30;3.00;;;8.40;39.60;;;;;;10420911;28;20229;-73
2021/11/23 16:10:05;;;;;;;5.20;4.63;;;8.40;40.00;;;;;;10421889;28;20221;-72
2021/11/23 16:15:09;;;;;;;3.90;3.50;;;8.40;39.60;;;;;;10421735;28;20236;-72
2021/11/23 16:20:14;;;;;;;6.47;5.87;;;8.30;39.50;;;;;;10425434;28;20236;-72
2021/11/23 16:25:19;;;;;;;9.53;6.97;;;8.20;39.40;;;;;;10423967;28;20229;-72
2021/11/23 16:30:25;;;;;;;92.33;52.37;;;8.10;39.30;;;;;;10420769;28;20242;-72
2021/11/23 16:35:30;;;;;;;84.30;48.13;;;8.00;40.00;;;;;;10420817;28;20308;-71
2021/11/23 16:40:35;;;;;;;72.97;41.60;;;7.90;39.20;;;;;;10420481;28;20231;-73
2021/11/23 16:45:38;;;;;;;71.60;41.53;;;7.80;39.10;;;;;;10424148;28;20233;-73
2021/11/23 16:50:43;;;;;;;69.20;42.67;;;7.70;39.50;;;;;;10427550;28;20221;-73
2021/11/23 16:55:49;;;;;;;78.57;53.10;;;7.60;39.40;;;;;;10422024;28;20220;-72
2021/11/23 17:00:55;;;;;;;65.27;43.37;;;7.50;38.90;;;;;;10418764;28;20227;-72
2021/11/23 17:06:03;;;;;;;48.33;37.23;;;7.40;39.20;;;;;;10418739;28;20232;-72
2021/11/23 17:11:08;;;;;;;37.00;31.63;;;7.30;39.00;;;;;;10416165;28;21017;-71
2021/11/23 17:16:11;;;;;;;33.83;27.97;;;7.20;40.60;;;;;;10419437;28;20240;-71
2021/11/23 17:21:17;;;;;;;32.07;27.43;;;7.20;40.20;;;;;;10402042;28;20225;-71
2021/11/23 17:26:22;;;;;;;24.00;20.33;;;7.20;40.00;;;;;;10383094;28;20320;-71
2021/11/23 17:31:26;;;;;;;19.33;16.33;;;7.20;39.70;;;;;;10432812;28;20233;-71
2021/11/23 17:36:30;;;;;;;16.83;15.03;;;7.10;39.90;;;;;;10421419;28;20852;-71
2021/11/23 17:41:35;;;;;;;16.47;14.77;;;7.10;39.80;;;;;;10420554;28;20248;-71
2021/11/23 17:46:38;;;;;;;15.70;14.10;;;7.10;39.50;;;;;;10420068;28;20240;-72
2021/11/23 17:51:42;;;;;;;12.30;11.10;;;7.10;39.50;;;;;;10418914;28;20229;-72
2021/11/23 17:56:46;;;;;;;11.13;10.03;;;7.00;39.60;;;;;;10415921;28;20327;-71
2021/11/23 18:01:50;;;;;;;11.63;10.43;;;6.90;39.40;;;;;;10382133;28;20245;-71
2021/11/23 18:06:54;;;;;;;10.50;9.23;;;6.90;40.10;;;;;;10410916;28;20317;-71
2021/11/23 18:11:58;;;;;;;9.33;8.43;;;6.90;39.90;;;;;;10416681;28;20728;-71
2021/11/23 18:17:11;;;;;;;9.30;8.40;;;6.90;39.60;;;;;;10417803;28;20280;-72
2021/11/23 18:22:16;;;;;;;9.20;8.30;;;6.90;39.60;;;;;;10422187;28;20233;-72
2021/11/23 18:27:23;;;;;;;9.87;8.83;;;6.80;39.50;;;;;;10419640;28;20241;-72
2021/11/23 18:32:29;;;;;;;8.33;7.63;;;6.80;39.30;;;;;;10441991;28;20697;-72
2021/11/23 18:37:49;;;;;;;11.70;10.60;;;6.70;39.40;;;;;;10428339;28;21240;-72
2021/11/23 18:42:55;;;;;;;12.40;11.10;;;6.70;39.30;;;;;;10420873;28;20244;-72
2021/11/23 18:47:58;;;;;;;11.73;10.50;;;6.60;39.30;;;;;;10430428;28;20241;-72
2021/11/23 18:53:03;;;;;;;15.50;10.37;;;6.60;39.30;;;;;;10425831;28;20347;-74
2021/11/23 18:58:07;;;;;;;10.97;8.80;;;6.60;39.30;;;;;;10425019;28;20229;-71
2021/11/23 19:03:13;;;;;;;8.67;7.77;;;6.50;39.20;;;;;;10415678;28;20324;-72
2021/11/23 19:08:17;;;;;;;9.70;8.17;;;6.40;39.70;;;;;;10428918;28;20229;-72
2021/11/23 19:13:22;;;;;;;9.47;8.37;;;6.40;40.00;;;;;;10418664;28;20768;-72
2021/11/23 19:18:25;;;;;;;8.33;7.43;;;6.30;39.40;;;;;;10419924;28;20238;-72
2021/11/23 19:23:30;;;;;;;7.03;6.20;;;6.30;39.60;;;;;;10422372;28;21319;-72
2021/11/23 19:28:37;;;;;;;7.27;6.57;;;6.20;39.70;;;;;;10427621;28;20383;-72
2021/11/23 19:33:48;;;;;;;8.53;7.63;;;6.10;39.60;;;;;;10431005;28;20761;-72
2021/11/23 19:38:51;;;;;;;19.07;16.97;;;6.10;39.70;;;;;;10416382;28;20234;-72
2021/11/23 19:43:56;;;;;;;20.40;17.47;;;6.10;39.50;;;;;;10420506;28;20241;-71
2021/11/23 19:49:03;;;;;;;17.60;13.40;;;6.00;39.30;;;;;;10421847;28;20791;-72
2021/11/23 19:54:11;;;;;;;15.50;13.90;;;5.90;39.50;;;;;;10416275;28;20995;-71
2021/11/23 19:59:16;;;;;;;14.60;13.07;;;5.90;39.50;;;;;;10420625;28;20225;-72
2021/11/23 20:04:19;;;;;;;14.67;13.07;;;5.80;39.50;;;;;;10424109;28;22061;-71
2021/11/23 20:09:22;;;;;;;13.97;12.30;;;5.80;39.60;;;;;;10426058;28;20834;-71
2021/11/23 20:14:30;;;;;;;15.60;13.13;;;5.80;39.60;;;;;;10425538;28;20876;-71
2021/11/23 20:19:33;;;;;;;14.43;12.93;;;5.70;39.60;;;;;;10428283;28;20235;-71
2021/11/23 20:24:37;;;;;;;14.70;10.83;;;5.70;39.50;;;;;;10414296;28;20228;-71
2021/11/23 20:29:42;;;;;;;13.27;11.97;;;5.60;39.50;;;;;;10427054;28;20238;-71
2021/11/23 20:34:49;;;;;;;12.53;11.23;;;5.60;39.50;;;;;;10423572;28;20732;-72
2021/11/23 20:39:53;;;;;;;13.50;11.77;;;5.50;39.50;;;;;;10430509;28;20221;-72
2021/11/23 20:44:57;;;;;;;12.50;11.13;;;5.50;39.60;;;;;;10420467;28;20241;-72
2021/11/23 20:50:01;;;;;;;11.77;10.57;;;5.50;39.60;;;;;;10418139;28;20311;-72
2021/11/23 20:55:06;;;;;;;10.90;9.80;;;5.40;39.60;;;;;;10429752;28;20233;-72
2021/11/23 21:00:16;;;;;;;11.07;9.00;;;5.40;39.50;;;;;;10420169;28;20463;-72
2021/11/23 21:05:20;;;;;;;11.17;10.03;;;5.30;39.10;;;;;;10415373;28;20236;-72
2021/11/23 21:10:24;;;;;;;11.17;9.87;;;5.30;39.30;;;;;;10422043;28;20762;-71
2021/11/23 21:15:30;;;;;;;11.30;10.20;;;5.10;39.20;;;;;;10416842;28;20295;-72
2021/11/23 21:20:33;;;;;;;11.53;10.43;;;5.10;39.10;;;;;;10420426;28;20225;-72
2021/11/23 21:25:38;;;;;;;11.07;9.80;;;5.00;39.20;;;;;;10421284;28;20328;-72
2021/11/23 21:30:43;;;;;;;11.43;10.23;;;5.00;39.20;;;;;;10424895;28;20250;-72
2021/11/23 21:35:46;;;;;;;12.00;10.67;;;4.90;39.10;;;;;;10425125;28;20221;-72
2021/11/23 21:40:49;;;;;;;13.10;11.80;;;4.90;39.40;;;;;;10424070;28;20227;-72
2021/11/23 21:46:02;;;;;;;10.30;9.30;;;4.90;39.20;;;;;;10423712;28;20299;-71
2021/11/23 21:51:06;;;;;;;10.10;9.10;;;4.80;39.10;;;;;;10420724;28;20702;-72
2021/11/23 21:56:10;;;;;;;9.87;8.87;;;4.70;39.00;;;;;;10420977;28;20241;-71
2021/11/23 22:01:15;;;;;;;10.43;9.33;;;4.60;38.90;;;;;;10424397;28;20229;-72
2021/11/23 22:06:18;;;;;;;9.97;8.40;;;4.50;38.90;;;;;;10420092;28;20259;-72
2021/11/23 22:11:23;;;;;;;9.50;8.57;;;4.50;39.20;;;;;;10423915;28;20314;-72
2021/11/23 22:16:28;;;;;;;9.30;8.37;;;4.30;39.20;;;;;;10423777;28;20244;-71
2021/11/23 22:21:36;;;;;;;9.03;8.07;;;4.30;39.20;;;;;;10425855;28;20225;-71
2021/11/23 22:26:41;;;;;;;8.43;7.70;;;4.30;39.10;;;;;;10423807;28;20236;-71
2021/11/23 22:31:46;;;;;;;9.20;8.27;;;4.20;39.20;;;;;;10423166;28;20720;-71
2021/11/23 22:36:49;;;;;;;12.10;10.73;;;4.20;39.40;;;;;;10422899;28;20244;-71
2021/11/23 22:41:52;;;;;;;11.77;10.60;;;4.10;39.50;;;;;;10422135;28;20524;-72
2021/11/23 22:46:57;;;;;;;9.27;8.37;;;4.10;39.40;;;;;;10423540;28;20244;-71
2021/11/23 22:52:01;;;;;;;9.80;8.80;;;4.10;39.30;;;;;;10426130;28;20225;-72
2021/11/23 22:57:05;;;;;;;11.33;10.23;;;4.10;39.40;;;;;;10425729;28;20586;-72
2021/11/23 23:02:09;;;;;;;11.13;10.03;;;4.00;39.20;;;;;;10410400;28;20335;-72
2021/11/23 23:07:13;;;;;;;10.23;9.23;;;4.00;39.10;;;;;;10428495;28;20225;-71
2021/11/23 23:12:18;;;;;;;11.57;9.40;;;4.00;39.20;;;;;;10420105;28;20665;-71
2021/11/23 23:17:23;;;;;;;8.60;7.80;;;4.00;39.30;;;;;;10419114;28;20241;-71
2021/11/23 23:22:26;;;;;;;10.70;9.60;;;3.90;39.10;;;;;;10427889;28;20332;-71
2021/11/23 23:27:30;;;;;;;9.60;8.63;;;3.90;39.30;;;;;;10428201;28;20295;-71
2021/11/23 23:32:35;;;;;;;9.90;8.63;;;3.90;39.20;;;;;;10427204;28;20298;-71
2021/11/23 23:37:39;;;;;;;11.47;9.27;;;3.80;39.10;;;;;;10426515;28;20700;-71
2021/11/23 23:42:42;;;;;;;9.50;8.30;;;3.80;39.10;;;;;;10422924;28;20625;-72
2021/11/23 23:47:47;;;;;;;9.83;8.10;;;3.90;39.10;;;;;;10427946;28;20286;-71
2021/11/23 23:52:51;;;;;;;9.60;8.60;;;3.70;38.90;;;;;;10424778;28;20287;-71
2021/11/23 23:57:54;;;;;;;9.10;7.97;;;3.70;39.10;;;;;;10428181;28;20284;-71
